Time;durP1;ratioP1;P1;durP2;ratioP2;P2;SDS_P1;SDS_P2;PMS_P1;PMS_P2;Temp;Humidity;BMP_temperature;BMP_pressure;BME280_temperature;BME280_humidity;BME280_pressure;Samples;Min_cycle;Max_cycle;Signal;HPM_P1;HPM_P2
2022/10/06 00:00:30;;;;;;;14.63;5.95;;;;;;;10.10;61.69;100692.28;5013036;28;20480;-68
2022/10/06 00:02:56;;;;;;;11.30;5.22;;;;;;;10.47;60.48;100680.59;5013921;28;20025;-68
2022/10/06 00:05:21;;;;;;;14.18;6.75;;;;;;;10.24;60.64;100678.38;5012505;28;20018;-68
2022/10/06 00:07:47;;;;;;;11.02;5.80;;;;;;;10.04;61.87;100689.88;5013742;28;20522;-68
2022/10/06 00:10:12;;;;;;;11.82;6.22;;;;;;;9.73;62.93;100685.53;5012401;28;20065;-68
2022/10/06 00:12:49;;;;;;;13.00;6.95;;;;;;;9.75;62.59;100683.28;5010050;28;20041;-68
2022/10/06 00:15:18;;;;;;;11.93;6.88;;;;;;;9.87;62.14;100684.81;5012439;28;20092;-68
2022/10/06 00:17:43;;;;;;;16.42;8.05;;;;;;;10.00;61.39;100686.00;5012056;28;20029;-68
2022/10/06 00:20:09;;;;;;;13.80;7.10;;;;;;;9.93;61.14;100681.63;5013428;28;20088;-68
2022/10/06 00:22:37;;;;;;;18.90;7.47;;;;;;;9.54;61.64;100686.31;5012262;28;20030;-68
2022/10/06 00:25:04;;;;;;;7.93;5.35;;;;;;;9.36;62.13;100682.34;5012210;28;20594;-68
2022/10/06 00:27:35;;;;;;;13.05;7.13;;;;;;;9.33;61.62;100690.47;5013548;28;20026;-68
2022/10/06 00:30:02;;;;;;;12.50;5.72;;;;;;;9.43;61.79;100681.19;5010854;28;20037;-68
2022/10/06 00:32:27;;;;;;;11.85;7.43;;;;;;;9.17;62.28;100673.91;5011463;28;20452;-68
2022/10/06 00:34:53;;;;;;;14.43;7.68;;;;;;;9.14;62.67;100654.97;5013208;28;20060;-68
2022/10/06 00:37:18;;;;;;;11.15;5.65;;;;;;;9.07;62.82;100655.34;5012309;28;20043;-68
2022/10/06 00:39:44;;;;;;;9.00;5.57;;;;;;;9.05;63.06;100656.75;5012028;28;20103;-68
2022/10/06 00:42:21;;;;;;;15.10;5.05;;;;;;;8.88;63.00;100657.19;5013168;28;20504;-68
2022/10/06 00:44:48;;;;;;;9.65;4.65;;;;;;;8.72;64.59;100654.56;5011565;28;20056;-68
2022/10/06 00:47:13;;;;;;;8.85;4.85;;;;;;;8.75;64.23;100662.34;5013073;28;20109;-68
2022/10/06 00:49:40;;;;;;;7.13;5.00;;;;;;;8.66;65.03;100662.16;5010859;28;20026;-68
2022/10/06 00:52:09;;;;;;;13.35;4.75;;;;;;;8.63;65.01;100654.38;5011036;28;20558;-68
2022/10/06 00:54:35;;;;;;;5.80;4.28;;;;;;;8.68;64.92;100651.53;5012887;28;20069;-68
2022/10/06 00:57:02;;;;;;;13.00;5.18;;;;;;;8.55;65.19;100660.56;5012311;28;20061;-68
2022/10/06 00:59:28;;;;;;;6.03;4.05;;;;;;;8.78;64.47;100655.34;5011438;28;20038;-68
2022/10/06 01:02:03;;;;;;;5.72;4.55;;;;;;;8.73;64.52;100647.84;5012822;28;20061;-68
2022/10/06 01:04:35;;;;;;;6.88;4.50;;;;;;;8.60;65.18;100652.16;5012651;28;20064;-68
2022/10/06 01:07:02;;;;;;;10.65;5.28;;;;;;;8.61;65.15;100655.78;4997633;28;20036;-68
2022/10/06 01:09:30;;;;;;;11.88;5.53;;;;;;;8.84;64.48;100648.56;5012539;28;20030;-68
2022/10/06 01:12:00;;;;;;;9.88;5.70;;;;;;;9.27;63.34;100653.41;5009550;28;20523;-68
2022/10/06 01:14:26;;;;;;;;;;;;;;;9.44;61.89;100654.91;5013044;28;20092;-68
2022/10/06 01:17:14;;;;;;;7.25;4.78;;;;;;;9.60;61.49;100653.56;5011628;28;19914;-68
2022/10/06 01:19:55;;;;;;;10.75;4.82;;;;;;;9.70;61.48;100655.38;5010502;28;20044;-68
2022/10/06 01:22:32;;;;;;;9.10;4.43;;;;;;;9.86;61.81;100649.59;5012451;28;20156;-68
2022/10/06 01:24:58;;;;;;;8.20;5.55;;;;;;;9.84;61.03;100652.69;5010930;28;20513;-68
2022/10/06 01:27:27;;;;;;;9.65;6.32;;;;;;;9.95;61.13;100658.94;5012434;28;20037;-68
2022/10/06 01:29:54;;;;;;;12.27;6.53;;;;;;;10.00;61.25;100663.63;5012255;28;20022;-68
2022/10/06 01:32:21;;;;;;;9.68;5.90;;;;;;;10.03;61.50;100657.47;5009864;28;20052;-68
2022/10/06 01:34:47;;;;;;;12.38;5.55;;;;;;;9.93;61.64;100656.47;5011252;28;20041;-68
2022/10/06 01:37:13;;;;;;;8.98;6.22;;;;;;;9.93;61.32;100656.47;5011411;28;20038;-68
2022/10/06 01:39:38;;;;;;;21.83;11.48;;;;;;;9.77;61.76;100657.81;5011291;28;20117;-68
2022/10/06 01:42:04;;;;;;;19.17;11.40;;;;;;;9.74;62.12;100658.41;5012147;28;20030;-68
2022/10/06 01:44:29;;;;;;;10.13;6.32;;;;;;;9.48;63.28;100654.00;5012042;28;20041;-68
2022/10/06 01:46:55;;;;;;;12.15;6.43;;;;;;;9.34;63.27;100656.69;5011942;28;20084;-68
2022/10/06 01:49:20;;;;;;;8.23;6.07;;;;;;;8.88;65.00;100644.09;5010905;28;20028;-68
2022/10/06 01:51:46;;;;;;;8.50;5.72;;;;;;;8.70;66.01;100654.84;5011935;28;20022;-68
2022/10/06 01:54:12;;;;;;;12.35;8.23;;;;;;;8.78;65.63;100649.78;5011073;28;20087;-68
2022/10/06 01:56:37;;;;;;;9.38;6.93;;;;;;;8.72;66.03;100646.19;5010612;28;20045;-68
2022/10/06 01:59:03;;;;;;;7.93;6.22;;;;;;;8.57;66.78;100648.00;5011821;28;20022;-68
2022/10/06 02:01:28;;;;;;;7.15;5.63;;;;;;;8.34;67.50;100651.53;5011823;28;20456;-68
2022/10/06 02:03:54;;;;;;;6.95;5.15;;;;;;;8.38;67.21;100644.22;5010698;28;20037;-68
2022/10/06 02:06:19;;;;;;;9.85;5.97;;;;;;;8.43;67.22;100641.38;5010440;28;20018;-68
2022/10/06 02:08:45;;;;;;;6.60;4.97;;;;;;;8.42;67.01;100648.09;5010262;28;20022;-68
2022/10/06 02:11:11;;;;;;;8.10;5.00;;;;;;;8.71;66.73;100644.53;5011805;28;20101;-68
2022/10/06 02:13:37;;;;;;;6.68;4.45;;;;;;;8.94;66.03;100642.91;5010523;28;20056;-68
2022/10/06 02:16:05;;;;;;;14.73;4.22;;;;;;;8.95;65.94;100646.53;5010681;28;20025;-68
2022/10/06 02:18:32;;;;;;;12.38;6.47;;;;;;;8.87;65.62;100641.59;5010502;28;20029;-68
2022/10/06 02:20:57;;;;;;;9.07;4.70;;;;;;;8.69;66.32;100641.22;5011604;28;20101;-68
2022/10/06 02:23:23;;;;;;;7.35;4.40;;;;;;;8.48;67.17;100641.38;5011648;28;20443;-68
2022/10/06 02:25:48;;;;;;;11.85;4.53;;;;;;;8.50;67.54;100657.78;5011536;28;20059;-68
2022/10/06 02:28:15;;;;;;;6.70;3.90;;;;;;;8.69;66.47;100647.59;5011567;28;20025;-68
2022/10/06 02:30:41;;;;;;;6.80;4.47;;;;;;;8.75;65.81;100655.91;5009576;28;20026;-68
2022/10/06 02:33:06;;;;;;;4.95;3.63;;;;;;;8.76;66.17;100658.41;5000684;28;20412;-68
2022/10/06 02:35:32;;;;;;;7.00;3.72;;;;;;;8.72;66.54;100657.34;5011999;28;20022;-68
2022/10/06 02:37:57;;;;;;;6.70;4.10;;;;;;;8.95;65.72;100663.28;5013445;28;20028;-68
2022/10/06 02:40:23;;;;;;;11.40;5.28;;;;;;;8.51;66.69;100651.97;5015249;28;20026;-68
2022/10/06 02:42:49;;;;;;;8.02;4.22;;;;;;;8.23;68.42;100657.19;5013275;28;20033;-68
2022/10/06 02:45:14;;;;;;;6.10;4.45;;;;;;;7.95;68.77;100651.22;5013916;28;20095;-68
2022/10/06 02:47:40;;;;;;;6.97;4.82;;;;;;;7.81;69.08;100655.75;5013979;28;20482;-68
2022/10/06 02:50:06;;;;;;;8.05;4.97;;;;;;;7.86;69.41;100648.22;5014193;28;20025;-68
2022/10/06 02:52:34;;;;;;;9.15;5.78;;;;;;;7.96;68.87;100644.56;5013914;28;20056;-68
2022/10/06 02:55:01;;;;;;;7.80;4.43;;;;;;;8.09;68.91;100639.44;5013860;28;20492;-68
2022/10/06 02:57:27;;;;;;;7.85;4.88;;;;;;;8.15;68.23;100643.84;5013009;28;20029;-68
2022/10/06 02:59:52;;;;;;;7.22;4.28;;;;;;;7.99;68.41;100640.31;5013760;28;20026;-68
2022/10/06 03:02:18;;;;;;;6.30;4.78;;;;;;;7.98;68.72;100649.81;5013690;28;20088;-68
2022/10/06 03:04:43;;;;;;;7.43;5.32;;;;;;;7.83;69.29;100650.72;5012700;28;20037;-68
2022/10/06 03:07:08;;;;;;;8.40;5.18;;;;;;;7.79;69.49;100647.72;5013536;28;20022;-68
2022/10/06 03:09:34;;;;;;;11.68;5.65;;;;;;;7.97;69.30;100645.38;5013448;28;20083;-68
2022/10/06 03:12:00;;;;;;;11.38;7.10;;;;;;;7.94;68.68;100643.16;5013524;28;20040;-68
2022/10/06 03:14:26;;;;;;;15.60;7.15;;;;;;;7.82;69.31;100644.34;5013638;28;20049;-68
2022/10/06 03:16:53;;;;;;;11.88;6.97;;;;;;;7.86;69.35;100651.00;5013734;28;20033;-68
2022/10/06 03:19:19;;;;;;;8.52;5.60;;;;;;;7.78;69.46;100646.03;5013555;28;20112;-68
2022/10/06 03:21:45;;;;;;;13.60;7.40;;;;;;;7.72;69.42;100642.47;5014631;28;20088;-68
2022/10/06 03:24:10;;;;;;;15.27;7.20;;;;;;;8.04;68.35;100648.69;5014630;28;20029;-67
2022/10/06 03:26:39;;;;;;;8.68;5.95;;;;;;;7.68;69.50;100651.69;5012970;28;20026;-68
2022/10/06 03:29:05;;;;;;;14.32;7.30;;;;;;;7.46;70.34;100647.31;5025517;28;20472;-67
2022/10/06 03:31:31;;;;;;;11.35;7.35;;;;;;;7.70;69.77;100641.91;5032909;28;20029;-68
2022/10/06 03:33:57;;;;;;;11.82;7.20;;;;;;;7.76;68.89;100639.91;5032944;28;20132;-68
2022/10/06 03:36:25;;;;;;;11.95;8.57;;;;;;;7.31;70.60;100639.84;5025541;28;20101;-68
2022/10/06 03:38:51;;;;;;;15.43;7.88;;;;;;;7.28;71.13;100649.59;5012029;28;20448;-68
2022/10/06 03:41:19;;;;;;;14.35;7.75;;;;;;;7.09;71.88;100641.03;5014188;28;20123;-68
2022/10/06 03:43:47;;;;;;;14.60;8.18;;;;;;;7.26;70.90;100635.13;5014138;28;20503;-68
2022/10/06 03:46:15;;;;;;;15.48;8.65;;;;;;;7.19;71.24;100637.41;5014269;28;20038;-68
2022/10/06 03:48:41;;;;;;;13.88;8.77;;;;;;;7.35;71.53;100635.38;5012850;28;20081;-68
2022/10/06 03:51:10;;;;;;;12.93;8.52;;;;;;;7.16;71.95;100641.59;5011736;28;20026;-68
2022/10/06 03:53:36;;;;;;;12.75;8.48;;;;;;;7.11;72.66;100638.81;5019050;28;20040;-68
2022/10/06 03:56:16;;;;;;;10.23;7.15;;;;;;;7.42;71.38;100649.84;5013060;28;20029;-68
2022/10/06 03:58:45;;;;;;;20.85;8.18;;;;;;;7.27;71.53;100645.16;5013895;28;20611;-68
2022/10/06 04:01:38;;;;;;;13.77;8.13;;;;;;;7.02;72.87;100651.66;5016456;28;20030;-68
2022/10/06 04:04:05;;;;;;;11.57;8.10;;;;;;;7.26;71.96;100639.88;5012619;28;20494;-67
2022/10/06 04:06:33;;;;;;;11.85;7.90;;;;;;;7.19;72.00;100644.91;5011636;28;20068;-68
2022/10/06 04:08:59;;;;;;;12.88;7.75;;;;;;;7.42;71.22;100651.78;5009662;28;20053;-67
2022/10/06 04:11:33;;;;;;;12.10;7.50;;;;;;;7.10;71.35;100636.31;5012528;28;20026;-68
2022/10/06 04:14:03;;;;;;;14.32;9.55;;;;;;;7.18;71.09;100643.25;5011912;28;20049;-67
2022/10/06 04:16:31;;;;;;;35.43;11.63;;;;;;;6.93;71.58;100637.47;5011641;28;20095;-66
2022/10/06 04:18:58;;;;;;;19.83;11.73;;;;;;;6.73;73.01;100639.19;5013483;28;20026;-67
2022/10/06 04:21:25;;;;;;;22.08;14.35;;;;;;;6.62;73.25;100633.91;5011328;28;20557;-67
2022/10/06 04:23:55;;;;;;;27.73;18.15;;;;;;;6.83;72.51;100643.06;5013466;28;20520;-68
2022/10/06 04:26:23;;;;;;;21.42;15.82;;;;;;;6.95;71.59;100643.59;5013479;28;20025;-68
2022/10/06 04:28:49;;;;;;;24.38;11.65;;;;;;;6.75;72.09;100633.31;5010117;28;20103;-68
2022/10/06 04:31:23;;;;;;;17.67;9.40;;;;;;;6.75;72.03;100638.88;5007986;28;20029;-70
2022/10/06 04:33:51;;;;;;;13.13;8.45;;;;;;;6.49;72.60;100633.38;5009500;28;20038;-69
2022/10/06 04:36:22;;;;;;;18.08;7.95;;;;;;;6.49;73.10;100633.38;5008484;28;20036;-69
2022/10/06 04:38:49;;;;;;;11.10;7.18;;;;;;;6.43;74.50;100642.84;5010562;28;20022;-70
2022/10/06 04:41:16;;;;;;;9.65;6.85;;;;;;;6.41;74.48;100633.94;5010734;28;20026;-71
2022/10/06 04:43:44;;;;;;;14.27;7.80;;;;;;;6.44;74.30;100634.19;5008944;28;20026;-71
2022/10/06 04:46:10;;;;;;;11.98;8.30;;;;;;;6.34;73.72;100637.00;5009099;28;20021;-72
2022/10/06 04:48:35;;;;;;;12.05;8.27;;;;;;;6.44;73.66;100625.03;5010353;28;20032;-70
2022/10/06 04:51:03;;;;;;;18.65;8.32;;;;;;;6.44;73.57;100636.16;5008861;28;20029;-71
2022/10/06 04:53:30;;;;;;;15.52;8.00;;;;;;;6.36;73.42;100628.38;5009999;28;20040;-70
2022/10/06 04:56:03;;;;;;;18.00;7.90;;;;;;;6.21;74.19;100635.59;5006163;28;20029;-72
2022/10/06 04:58:37;;;;;;;22.00;9.40;;;;;;;6.29;73.81;100634.22;5002856;28;20056;-71
2022/10/06 05:01:10;;;;;;;17.90;9.32;;;;;;;6.26;74.37;100634.78;5012086;28;20112;-72
2022/10/06 05:03:37;;;;;;;16.98;7.18;;;;;;;6.39;73.66;100630.59;5010122;28;20527;-70
2022/10/06 05:06:12;;;;;;;18.90;7.45;;;;;;;6.54;73.36;100638.94;5009347;28;20476;-74
2022/10/06 05:08:38;;;;;;;21.30;9.35;;;;;;;6.62;73.25;100639.47;5006086;28;20030;-71
2022/10/06 05:11:07;;;;;;;18.00;8.20;;;;;;;6.72;72.64;100648.66;5009681;28;20500;-73
2022/10/06 05:13:32;;;;;;;24.50;9.95;;;;;;;6.79;72.19;100653.91;5009729;28;20481;-70
2022/10/06 05:15:59;;;;;;;23.67;11.70;;;;;;;6.87;72.34;100650.53;5009832;28;20113;-70
2022/10/06 05:18:26;;;;;;;14.35;8.48;;;;;;;6.74;73.47;100654.75;5006569;28;20061;-69
2022/10/06 05:21:02;;;;;;;17.92;10.43;;;;;;;6.83;73.93;100649.44;5009361;28;20491;-68
2022/10/06 05:23:29;;;;;;;26.60;10.85;;;;;;;6.79;73.98;100642.78;5009794;28;20109;-69
2022/10/06 05:25:56;;;;;;;30.52;12.57;;;;;;;7.03;73.76;100644.97;5003699;28;20026;-70
2022/10/06 05:28:26;;;;;;;25.50;12.35;;;;;;;7.00;74.12;100639.97;4989647;28;20117;-71
2022/10/06 05:30:55;;;;;;;23.92;10.27;;;;;;;6.94;74.33;100652.22;5002750;28;20041;-70
2022/10/06 05:33:21;;;;;;;25.15;10.93;;;;;;;6.94;74.57;100647.50;5018662;28;20033;-72
2022/10/06 05:35:58;;;;;;;29.13;13.68;;;;;;;6.85;75.02;100652.78;5006640;28;20125;-71
2022/10/06 05:38:24;;;;;;;18.98;8.15;;;;;;;7.26;74.14;100662.97;5021134;28;20045;-69
2022/10/06 05:40:50;;;;;;;15.77;8.40;;;;;;;7.57;72.93;100662.88;5015440;28;20488;-69
2022/10/06 05:43:17;;;;;;;13.68;8.73;;;;;;;7.79;72.05;100674.72;5019822;28;20476;-69
2022/10/06 05:45:57;;;;;;;12.38;7.93;;;;;;;7.94;71.72;100663.47;5022911;28;20149;-69
2022/10/06 05:48:22;;;;;;;28.00;7.43;;;;;;;8.05;71.09;100671.78;5011118;28;20046;-69
2022/10/06 05:50:56;;;;;;;12.57;7.78;;;;;;;8.22;70.77;100661.09;5010883;28;20033;-69
2022/10/06 05:53:22;;;;;;;12.18;7.05;;;;;;;8.45;70.04;100664.25;5011871;28;20040;-69
2022/10/06 05:55:47;;;;;;;13.27;7.28;;;;;;;8.43;69.90;100666.47;5009751;28;20404;-68
2022/10/06 05:58:13;;;;;;;13.60;7.00;;;;;;;8.52;68.84;100669.53;5011804;28;20057;-69
2022/10/06 06:00:39;;;;;;;21.23;7.07;;;;;;;8.73;68.46;100670.19;5011970;28;20030;-69
2022/10/06 06:03:08;;;;;;;10.30;6.28;;;;;;;8.80;68.44;100681.00;5010364;28;20033;-68
2022/10/06 06:05:39;;;;;;;19.17;7.50;;;;;;;9.00;68.00;100674.38;5007683;28;20034;-69
2022/10/06 06:08:05;;;;;;;11.88;6.65;;;;;;;9.06;67.34;100675.16;5006611;28;20412;-66
2022/10/06 06:10:31;;;;;;;10.43;6.95;;;;;;;9.01;67.00;100675.22;5006139;28;20018;-68
2022/10/06 06:12:56;;;;;;;11.70;6.85;;;;;;;9.06;66.81;100677.94;4999494;28;20402;-69
2022/10/06 06:18:06;;;;;;;10.80;6.60;;;;;;;9.48;66.25;100678.31;5003735;28;20499;-68
2022/10/06 06:20:32;;;;;;;11.07;6.85;;;;;;;9.74;65.53;100676.03;5001568;28;20716;-69
2022/10/06 06:22:57;;;;;;;15.45;6.63;;;;;;;9.86;64.38;100683.97;5002438;28;20030;-70
2022/10/06 06:25:23;;;;;;;10.45;6.38;;;;;;;9.97;63.42;100685.47;5004433;28;20037;-70
2022/10/06 06:27:48;;;;;;;13.20;6.72;;;;;;;10.29;63.65;100685.84;4998797;28;20034;-70
2022/10/06 06:30:13;;;;;;;12.07;5.68;;;;;;;10.52;60.66;100677.69;5001228;28;20229;-71
2022/10/06 06:32:39;;;;;;;8.88;5.72;;;;;;;10.83;60.40;100685.56;5003842;28;20045;-70
2022/10/06 06:35:05;;;;;;;14.15;5.28;;;;;;;10.92;60.36;100683.75;5000279;28;20512;-70
2022/10/06 06:37:31;;;;;;;8.00;5.60;;;;;;;11.11;60.09;100685.63;5003688;28;20110;-70
2022/10/06 06:39:56;;;;;;;11.23;5.57;;;;;;;11.15;59.79;100683.03;4998774;28;20109;-70
2022/10/06 06:42:21;;;;;;;6.90;5.07;;;;;;;11.49;58.67;100687.41;5003798;28;20389;-70
2022/10/06 06:44:47;;;;;;;7.55;4.55;;;;;;;11.63;57.71;100681.78;5002907;28;20505;-70
2022/10/06 06:47:14;;;;;;;11.32;4.85;;;;;;;11.81;57.03;100674.38;5001126;28;20485;-71
2022/10/06 06:49:41;;;;;;;9.50;5.05;;;;;;;11.94;56.43;100676.38;5003740;28;20036;-68
2022/10/06 06:52:07;;;;;;;9.75;4.43;;;;;;;12.12;55.68;100670.94;5003576;28;20508;-67
2022/10/06 06:54:32;;;;;;;8.30;4.07;;;;;;;12.38;55.02;100673.13;5003886;28;20026;-68
2022/10/06 06:56:59;;;;;;;5.80;4.28;;;;;;;12.29;54.98;100664.66;5008365;28;20034;-70
2022/10/06 06:59:24;;;;;;;7.72;4.55;;;;;;;12.67;54.76;100669.06;5004784;28;20105;-70
2022/10/06 07:01:50;;;;;;;15.35;4.30;;;;;;;12.75;53.73;100659.84;5009159;28;20084;-68
2022/10/06 07:04:16;;;;;;;8.75;4.70;;;;;;;12.82;54.29;100664.19;5007706;28;20039;-68
2022/10/06 07:06:55;;;;;;;7.57;4.45;;;;;;;13.21;53.21;100659.75;5010172;28;20084;-68
2022/10/06 07:09:22;;;;;;;9.15;4.25;;;;;;;13.29;52.35;100661.78;5007181;28;20065;-66
2022/10/06 07:11:49;;;;;;;13.93;4.15;;;;;;;13.04;52.48;100655.72;5008287;28;20136;-68
2022/10/06 07:14:14;;;;;;;10.13;4.07;;;;;;;13.17;52.03;100659.56;4996481;28;20102;-68
2022/10/06 07:25:06;;;;;;;11.48;3.83;;;;;;;14.40;49.08;100642.13;5014463;28;20504;-67
2022/10/06 07:27:41;;;;;;;14.07;3.22;;;;;;;14.45;47.68;100644.75;5003528;28;20026;-67
2022/10/06 07:30:08;;;;;;;5.05;2.90;;;;;;;14.25;47.13;100649.06;5012513;28;20522;-68
2022/10/06 07:32:36;;;;;;;9.13;3.22;;;;;;;14.53;47.62;100634.63;5014171;28;20025;-67
2022/10/06 07:35:03;;;;;;;4.63;2.95;;;;;;;14.72;46.80;100641.94;4999917;28;20030;-69
2022/10/06 07:37:28;;;;;;;9.45;2.80;;;;;;;14.52;46.61;100632.19;5010230;28;20481;-67
2022/10/06 07:39:54;;;;;;;11.80;4.03;;;;;;;14.49;46.53;100622.41;5002360;28;20030;-68
2022/10/06 07:42:19;;;;;;;4.70;3.05;;;;;;;14.89;46.48;100624.16;5004611;28;20071;-67
2022/10/06 07:47:30;;;;;;;12.48;3.55;;;;;;;14.83;46.52;100614.22;5010535;28;20048;-69
2022/10/06 07:49:57;;;;;;;7.00;3.38;;;;;;;14.60;47.13;100617.25;5011998;28;20037;-68
2022/10/06 07:52:23;;;;;;;7.50;3.88;;;;;;;14.89;47.06;100607.25;5010764;28;20025;-68
2022/10/06 07:54:49;;;;;;;4.70;2.97;;;;;;;15.24;45.94;100609.94;5008493;28;20187;-66
2022/10/06 07:57:15;;;;;;;8.98;3.35;;;;;;;14.85;46.38;100604.28;5008411;28;20527;-67
2022/10/06 07:59:40;;;;;;;4.50;3.10;;;;;;;14.92;46.83;100600.94;5008688;28;20542;-68
2022/10/06 08:02:06;;;;;;;4.55;3.00;;;;;;;15.20;46.06;100602.50;5001670;28;20030;-69
2022/10/06 08:04:31;;;;;;;6.38;3.58;;;;;;;15.57;45.22;100585.88;4996854;28;20076;-68
2022/10/06 08:06:57;;;;;;;4.93;3.10;;;;;;;15.71;45.07;100592.06;5005226;28;20480;-68
2022/10/06 08:09:23;;;;;;;6.55;3.25;;;;;;;15.45;45.54;100583.81;5006787;28;20389;-67
2022/10/06 08:11:48;;;;;;;11.57;3.25;;;;;;;15.24;45.65;100578.09;5011832;28;20026;-68
2022/10/06 08:14:14;;;;;;;6.75;2.75;;;;;;;15.67;45.00;100585.47;5011387;28;20018;-67
2022/10/06 08:16:39;;;;;;;5.85;2.60;;;;;;;15.64;44.92;100585.31;5009739;28;20508;-68
2022/10/06 08:19:05;;;;;;;7.57;3.95;;;;;;;15.71;44.29;100591.25;5009200;28;20511;-67
2022/10/06 08:21:33;;;;;;;6.38;3.40;;;;;;;16.20;43.59;100589.91;5010291;28;20161;-68
2022/10/06 08:24:00;;;;;;;9.38;4.60;;;;;;;15.94;44.10;100588.13;5013020;28;20022;-67
2022/10/06 08:26:27;;;;;;;5.68;2.92;;;;;;;16.27;43.32;100576.88;5011106;28;20101;-67
2022/10/06 08:28:58;;;;;;;7.75;3.05;;;;;;;16.28;42.72;100577.69;5002198;28;20022;-67
2022/10/06 08:31:24;;;;;;;3.97;2.85;;;;;;;16.22;42.35;100571.41;4996749;28;20034;-68
2022/10/06 08:33:54;;;;;;;11.60;4.82;;;;;;;16.70;42.89;100580.41;5006203;28;20057;-67
2022/10/06 08:36:20;;;;;;;5.43;3.45;;;;;;;16.78;42.44;100580.66;5011829;28;20017;-67
2022/10/06 08:38:48;;;;;;;4.40;3.38;;;;;;;16.73;42.17;100578.03;5012082;28;20022;-66
2022/10/06 08:41:26;;;;;;;5.45;2.97;;;;;;;17.19;41.28;100587.31;5009537;28;20431;-67
2022/10/06 08:44:03;;;;;;;9.43;3.03;;;;;;;17.04;41.94;100571.06;5008605;28;20103;-68
2022/10/06 08:46:36;;;;;;;6.20;3.63;;;;;;;16.77;42.37;100573.34;5010250;28;20516;-68
2022/10/06 08:49:02;;;;;;;6.47;3.38;;;;;;;17.24;42.03;100580.59;5010180;28;20022;-66
2022/10/06 08:51:49;;;;;;;11.38;3.78;;;;;;;17.57;41.69;100570.31;5009358;28;20113;-68
2022/10/06 08:54:41;;;;;;;5.70;3.30;;;;;;;17.02;42.58;100570.59;4992104;28;20740;-68
2022/10/06 08:57:34;;;;;;;5.68;3.30;;;;;;;17.82;42.46;100569.06;5005065;28;20654;-67
2022/10/06 09:00:00;;;;;;;7.68;2.90;;;;;;;18.14;41.48;100564.75;5002435;28;20087;-68
2022/10/06 09:02:33;;;;;;;3.28;2.83;;;;;;;17.80;40.70;100565.78;5013704;28;20025;-68
2022/10/06 09:05:03;;;;;;;7.28;3.25;;;;;;;17.51;41.30;100572.56;5001644;28;20030;-68
2022/10/06 09:07:59;;;;;;;8.67;2.90;;;;;;;17.83;40.99;100572.75;5009111;28;20030;-68
2022/10/06 09:10:30;;;;;;;7.05;3.92;;;;;;;18.01;40.01;100572.44;4999903;28;20837;-72
2022/10/06 09:13:05;;;;;;;6.05;3.25;;;;;;;17.99;41.11;100567.16;5010963;28;20094;-72
2022/10/06 09:15:36;;;;;;;5.35;3.47;;;;;;;18.24;40.11;100564.25;5006000;28;20026;-76
2022/10/06 09:18:16;;;;;;;3.33;2.75;;;;;;;18.40;39.41;100557.78;5008993;28;20037;-76
2022/10/06 09:20:50;;;;;;;4.63;3.13;;;;;;;18.33;39.70;100555.59;5011753;28;20033;-77
2022/10/06 09:23:52;;;;;;;5.80;3.00;;;;;;;18.52;38.84;100547.22;5011248;28;20025;-77
2022/10/06 09:26:12;;;;;;;5.55;2.63;;;;;;;19.02;38.26;100554.56;5010673;28;20133;-70
2022/10/06 09:28:38;;;;;;;3.67;2.42;;;;;;;18.37;38.51;100551.69;5009137;28;20033;-75
2022/10/06 09:31:14;;;;;;;6.18;3.33;;;;;;;18.41;38.80;100546.13;5011450;28;20030;-73
2022/10/06 09:33:40;;;;;;;5.88;2.88;;;;;;;18.65;38.31;100545.13;5013456;28;20045;-73
2022/10/06 09:36:08;;;;;;;18.77;8.18;;;;;;;19.26;37.70;100535.72;5010694;28;20021;-73
2022/10/06 09:38:54;;;;;;;6.28;4.40;;;;;;;19.67;37.03;100529.75;5024798;28;20104;-73
2022/10/06 09:41:30;;;;;;;4.05;2.75;;;;;;;19.81;36.33;100530.06;5021826;28;20029;-74
2022/10/06 09:44:02;;;;;;;8.30;3.38;;;;;;;20.05;35.92;100531.81;5020282;28;20116;-73
2022/10/06 09:46:33;;;;;;;3.30;2.65;;;;;;;19.67;36.48;100530.59;5015125;28;20397;-73
2022/10/06 09:49:21;;;;;;;3.75;2.45;;;;;;;19.52;36.74;100520.09;5007450;28;20026;-74
2022/10/06 09:52:14;;;;;;;3.65;2.35;;;;;;;19.13;37.27;100523.66;5015691;28;20040;-73
2022/10/06 09:54:44;;;;;;;4.15;2.53;;;;;;;19.76;36.71;100516.97;4999247;28;20029;-72
2022/10/06 09:57:16;;;;;;;6.18;2.70;;;;;;;19.43;36.41;100517.47;5006513;28;20579;-74
2022/10/06 09:59:44;;;;;;;3.92;2.40;;;;;;;19.58;35.95;100521.47;5002784;28;20041;-69
2022/10/06 10:02:35;;;;;;;2.70;2.10;;;;;;;20.03;35.04;100519.19;5005336;28;20504;-71
2022/10/06 10:05:17;;;;;;;3.15;2.40;;;;;;;20.09;35.09;100520.53;5011615;28;20034;-71
2022/10/06 10:07:44;;;;;;;5.93;2.90;;;;;;;19.91;35.42;100522.97;4990261;28;20532;-71
2022/10/06 10:10:23;;;;;;;6.10;2.65;;;;;;;19.54;36.06;100506.34;5002833;28;20107;-71
2022/10/06 10:12:55;;;;;;;3.88;2.50;;;;;;;19.82;35.73;100511.81;5002746;28;20205;-69
2022/10/06 10:15:20;;;;;;;5.93;3.00;;;;;;;20.10;35.64;100509.97;4996487;28;20034;-73
2022/10/06 10:17:53;;;;;;;4.93;2.88;;;;;;;20.36;34.94;100495.06;5010743;28;20195;-71
2022/10/06 10:20:18;;;;;;;11.43;2.33;;;;;;;20.67;34.79;100500.88;5000846;28;20022;-73
2022/10/06 10:22:46;;;;;;;3.20;2.38;;;;;;;20.62;34.48;100487.81;5008795;28;20493;-73
2022/10/06 10:25:33;;;;;;;3.10;2.42;;;;;;;20.74;33.97;100489.63;5007826;28;20036;-72
2022/10/06 10:28:07;;;;;;;4.15;2.00;;;;;;;20.80;33.76;100482.44;5009327;28;20030;-72
2022/10/06 10:30:44;;;;;;;11.50;2.53;;;;;;;20.79;33.95;100480.78;5005253;28;20084;-71
2022/10/06 10:33:27;;;;;;;3.78;2.47;;;;;;;20.90;33.78;100476.13;5006310;28;20497;-72
2022/10/06 10:35:55;;;;;;;5.30;2.17;;;;;;;21.07;33.77;100468.25;5011237;28;20029;-73
2022/10/06 10:38:23;;;;;;;5.80;2.60;;;;;;;21.49;33.24;100466.41;5011146;28;20488;-72
2022/10/06 10:40:53;;;;;;;3.65;2.00;;;;;;;21.55;32.81;100464.88;5000676;28;20463;-72
2022/10/06 10:43:25;;;;;;;3.22;2.42;;;;;;;21.57;32.21;100464.47;5009174;28;20030;-71
2022/10/06 10:46:21;;;;;;;3.20;2.85;;;;;;;21.49;32.42;100460.72;5009336;28;20141;-70
2022/10/06 10:49:11;;;;;;;8.07;2.40;;;;;;;21.50;32.26;100456.66;5005126;28;20073;-72
2022/10/06 10:51:52;;;;;;;5.78;2.47;;;;;;;21.67;32.26;100452.44;5004748;28;20353;-72
2022/10/06 10:54:25;;;;;;;4.93;2.80;;;;;;;21.57;31.71;100444.53;5005625;28;20052;-72
2022/10/06 10:56:52;;;;;;;3.78;2.42;;;;;;;21.66;31.93;100442.25;5008513;28;20033;-71
2022/10/06 10:59:36;;;;;;;7.13;2.35;;;;;;;21.04;32.18;100443.44;5010487;28;20109;-72
2022/10/06 11:02:15;;;;;;;5.03;1.95;;;;;;;21.69;30.72;100434.97;5005881;28;20053;-72
2022/10/06 11:04:46;;;;;;;5.88;2.00;;;;;;;21.82;30.89;100433.50;4999905;28;20033;-71
2022/10/06 11:07:26;;;;;;;9.45;2.53;;;;;;;22.12;30.14;100428.94;5006211;28;20116;-71
2022/10/06 11:10:25;;;;;;;3.42;2.17;;;;;;;21.76;30.09;100425.69;5012388;28;20021;-71
2022/10/06 11:13:10;;;;;;;3.97;1.73;;;;;;;21.69;30.75;100421.53;5003574;28;20044;-71
2022/10/06 11:15:49;;;;;;;4.38;2.10;;;;;;;22.01;30.23;100414.56;4995177;28;20409;-72
2022/10/06 11:18:29;;;;;;;11.63;3.47;;;;;;;22.25;30.17;100403.81;5007747;28;20351;-71
2022/10/06 11:21:13;;;;;;;3.47;2.15;;;;;;;22.24;29.86;100405.03;5011616;28;20109;-72
2022/10/06 11:23:53;;;;;;;6.30;1.88;;;;;;;22.21;29.42;100402.97;5009435;28;20025;-71
2022/10/06 11:26:42;;;;;;;3.58;2.42;;;;;;;22.25;29.40;100403.81;5011597;28;20053;-71
2022/10/06 11:29:35;;;;;;;4.30;1.77;;;;;;;22.48;28.88;100405.63;5013284;28;20025;-72
2022/10/06 11:32:16;;;;;;;4.00;1.83;;;;;;;22.49;29.49;100393.06;5006154;28;20044;-72
2022/10/06 11:34:43;;;;;;;5.10;2.20;;;;;;;22.40;29.88;100401.91;5009721;28;20099;-73
2022/10/06 11:37:30;;;;;;;2.70;1.63;;;;;;;22.31;29.29;100390.84;5003449;28;20512;-72
2022/10/06 11:39:58;;;;;;;2.42;1.90;;;;;;;22.18;29.81;100386.66;5011272;28;20572;-71
2022/10/06 11:42:45;;;;;;;6.22;2.40;;;;;;;22.58;29.19;100382.97;5012205;28;20028;-71
2022/10/06 11:45:13;;;;;;;2.15;1.80;;;;;;;22.47;29.08;100386.91;5008639;28;20108;-72
2022/10/06 11:48:09;;;;;;;3.90;1.60;;;;;;;22.72;28.57;100381.44;5007331;28;20037;-72
2022/10/06 11:50:37;;;;;;;3.25;1.70;;;;;;;22.37;28.13;100371.38;5010994;28;20050;-71
2022/10/06 11:53:05;;;;;;;3.08;1.67;;;;;;;22.66;27.71;100371.59;5011818;28;20030;-71